GKT weather

Gatlinburg-Pigeon Forge Airport
Sevierville, Tennessee, United States

Public forecast

Using degrees Fahrenheit for public forecast. Weather courtesy of forecast.io.

Current aviation weather report (METAR) for Gatlinburg-Pigeon Forge Airport

Retrieved 2020/03/30 10:35 UTC (21 minutes ago):

KGKT 301035Z AUTO 00000KT 10SM CLR 09/05 A3017 RMK A01

Closest aviation forecast (TAF) to Gatlinburg-Pigeon Forge Airport

Closest forecast is McGhee Tyson Airport, 22.8 nm (42.3 km) W. Retrieved 2020/03/30 06:30 UTC (4 hours ago):

TAF KTYS 300526Z 3006/3106 24006KT P6SM BKN250 FM301500 26009KT P6SM SCT150 BKN250 FM310100 VRB03KT P6SM BKN150